PWSweather.com
Personal Weather Stations
Station Observations
WD4JKH
Forsyth, GA 31029

Forsyth, GA 31029

Lat: 33.033225, Lon: -83.927995

Elevation: 709

Station Type: Davis Vantage VUE

High Low Average
Temperature 56.2°F13.4°C 30.7°F-0.7°C 39.3°F4.1°C
Dew Point 53.6°F12.0°C 21.0°F-6.1°C 30.4°F-0.9°C
Winds 17.2 mph 27.7 kmh 1.7 mph 2.7 kmh 7.0 mph WNW11.3 kmh WNW
Wind Gusts 31.0 mph49.9 kmh 9.0 mph14.5 kmh 20.0 mph32.2 kmh
Humidity 91% 55% 71%
Pressure 30.23 in1023.7 mb 29.61 in1002.7 mb -
Precipitation 0.01 in0.3 mm - -
Hour Temp Dew Point Humidity Winds Wind Gusts Pressure Precip Precip Rate Daily Precip Total
12:04 AM 56.9°F13.8°C 54.0°F12.2°C 90% 3.8 mph W6.1 kmh W 15.0 mph24.1 kmh 29.62 in1003.0 mb 0.00 in0.0 mm 0.00 in0.0 mm 0.95 in24.1 mm
12:09 AM 56.8°F13.8°C 53.9°F12.2°C 90% 2.9 mph WSW4.7 kmh WSW 13.0 mph20.9 kmh 29.62 in1003.0 mb 0.00 in0.0 mm 0.00 in0.0 mm 0.95 in24.1 mm
12:14 AM 56.7°F13.7°C 53.8°F12.1°C 90% 4.7 mph WSW7.6 kmh WSW 13.0 mph20.9 kmh 29.62 in1003.0 mb 0.00 in0.0 mm 0.00 in0.0 mm 0.95 in24.1 mm
12:19 AM 56.6°F13.7°C 53.7°F12.1°C 90% 3.0 mph WSW4.8 kmh WSW 13.0 mph20.9 kmh 29.62 in1003.0 mb 0.00 in0.0 mm 0.00 in0.0 mm 0.95 in24.1 mm
12:24 AM 56.5°F13.6°C 53.6°F12.0°C 90% 2.4 mph W3.9 kmh W 13.0 mph20.9 kmh 29.61 in1002.7 mb 0.00 in0.0 mm 0.00 in0.0 mm 0.95 in24.1 mm
12:29 AM 56.4°F13.6°C 53.5°F11.9°C 90% 5.3 mph WSW8.5 kmh WSW 11.0 mph17.7 kmh 29.62 in1003.0 mb 0.00 in0.0 mm 0.00 in0.0 mm 0.95 in24.1 mm
12:34 AM 56.4°F13.6°C 53.5°F11.9°C 90% 4.2 mph W6.8 kmh W 11.0 mph17.7 kmh 29.61 in1002.7 mb 0.00 in0.0 mm 0.00 in0.0 mm 0.95 in24.1 mm
12:39 AM 56.4°F13.6°C 53.5°F11.9°C 90% 5.2 mph WSW8.4 kmh WSW 11.0 mph17.7 kmh 29.61 in1002.7 mb 0.00 in0.0 mm 0.00 in0.0 mm 0.95 in24.1 mm
12:44 AM 56.4°F13.6°C 53.5°F11.9°C 90% 3.3 mph WSW5.3 kmh WSW 11.0 mph17.7 kmh 29.61 in1002.7 mb 0.00 in0.0 mm 0.00 in0.0 mm 0.95 in24.1 mm
12:49 AM 56.4°F13.6°C 53.8°F12.1°C 91% 4.4 mph W7.1 kmh W 11.0 mph17.7 kmh 29.61 in1002.7 mb 0.00 in0.0 mm 0.00 in0.0 mm 0.95 in24.1 mm
12:54 AM 56.3°F13.5°C 53.7°F12.1°C 91% 2.9 mph WSW4.7 kmh WSW 11.0 mph17.7 kmh 29.61 in1002.7 mb 0.00 in0.0 mm 0.00 in0.0 mm 0.95 in24.1 mm
12:59 AM 56.3°F13.5°C 53.7°F12.1°C 91% 2.0 mph WSW3.2 kmh WSW 11.0 mph17.7 kmh 29.61 in1002.7 mb 0.00 in0.0 mm 0.00 in0.0 mm 0.95 in24.1 mm
01:04 AM 56.2°F13.4°C 53.6°F12.0°C 91% 4.0 mph W6.4 kmh W 11.0 mph17.7 kmh 29.61 in1002.7 mb 0.00 in0.0 mm 0.00 in0.0 mm 0.00 in0.0 mm
01:09 AM 56.2°F13.4°C 53.0°F11.7°C 89% 5.3 mph W8.5 kmh W 14.0 mph22.5 kmh 29.61 in1002.7 mb 0.00 in0.0 mm 0.00 in0.0 mm 0.00 in0.0 mm
01:14 AM 56.2°F13.4°C 52.7°F11.5°C 88% 7.4 mph W11.9 kmh W 16.0 mph25.7 kmh 29.61 in1002.7 mb 0.00 in0.0 mm 0.00 in0.0 mm 0.00 in0.0 mm
01:19 AM 56.1°F13.4°C 52.3°F11.3°C 87% 6.9 mph W11.1 kmh W 17.0 mph27.4 kmh 29.61 in1002.7 mb 0.00 in0.0 mm 0.00 in0.0 mm 0.00 in0.0 mm
01:24 AM 55.8°F13.2°C 52.0°F11.1°C 87% 6.9 mph W11.1 kmh W 17.0 mph27.4 kmh 29.61 in1002.7 mb 0.00 in0.0 mm 0.00 in0.0 mm 0.00 in0.0 mm
01:29 AM 55.7°F13.2°C 51.6°F10.9°C 86% 6.7 mph W10.8 kmh W 17.0 mph27.4 kmh 29.62 in1003.0 mb 0.00 in0.0 mm 0.00 in0.0 mm 0.00 in0.0 mm
01:34 AM 55.6°F13.1°C 51.8°F11.0°C 87% 5.8 mph W9.3 kmh W 16.0 mph25.7 kmh 29.62 in1003.0 mb 0.00 in0.0 mm 0.00 in0.0 mm 0.00 in0.0 mm
01:39 AM 55.5°F13.1°C 51.7°F10.9°C 87% 5.4 mph W8.7 kmh W 16.0 mph25.7 kmh 29.62 in1003.0 mb 0.00 in0.0 mm 0.00 in0.0 mm 0.00 in0.0 mm
01:44 AM 55.4°F13.0°C 51.6°F10.9°C 87% 5.4 mph W8.7 kmh W 16.0 mph25.7 kmh 29.62 in1003.0 mb 0.00 in0.0 mm 0.00 in0.0 mm 0.00 in0.0 mm
01:49 AM 55.3°F12.9°C 51.5°F10.8°C 87% 5.4 mph W8.7 kmh W 12.0 mph19.3 kmh 29.62 in1003.0 mb 0.00 in0.0 mm 0.00 in0.0 mm 0.00 in0.0 mm
01:54 AM 55.3°F12.9°C 51.5°F10.8°C 87% 6.6 mph W10.6 kmh W 11.0 mph17.7 kmh 29.62 in1003.0 mb 0.00 in0.0 mm 0.00 in0.0 mm 0.00 in0.0 mm
01:59 AM 55.3°F12.9°C 51.5°F10.8°C 87% 4.9 mph WSW7.9 kmh WSW 12.0 mph19.3 kmh 29.62 in1003.0 mb 0.00 in0.0 mm 0.00 in0.0 mm 0.00 in0.0 mm
02:04 AM 55.3°F12.9°C 51.2°F10.7°C 86% 5.2 mph WSW8.4 kmh WSW 12.0 mph19.3 kmh 29.62 in1003.0 mb 0.00 in0.0 mm 0.00 in0.0 mm 0.00 in0.0 mm
02:09 AM 55.3°F12.9°C 49.9°F9.9°C 82% 9.9 mph W15.9 kmh W 20.0 mph32.2 kmh 29.62 in1003.0 mb 0.00 in0.0 mm 0.00 in0.0 mm 0.00 in0.0 mm
02:14 AM 55.4°F13.0°C 49.7°F9.8°C 81% 7.2 mph W11.6 kmh W 20.0 mph32.2 kmh 29.62 in1003.0 mb 0.00 in0.0 mm 0.00 in0.0 mm 0.00 in0.0 mm
02:19 AM 55.2°F12.9°C 49.8°F9.9°C 82% 4.7 mph W7.6 kmh W 20.0 mph32.2 kmh 29.62 in1003.0 mb 0.00 in0.0 mm 0.00 in0.0 mm 0.00 in0.0 mm
02:24 AM 55.0°F12.8°C 49.6°F9.8°C 82% 6.5 mph W10.5 kmh W 20.0 mph32.2 kmh 29.62 in1003.0 mb 0.00 in0.0 mm 0.00 in0.0 mm 0.00 in0.0 mm
02:28 AM 55.0°F12.8°C 49.6°F9.8°C 82% 8.1 mph W13.0 kmh W 19.0 mph30.6 kmh 29.62 in1003.0 mb 0.00 in0.0 mm 0.00 in0.0 mm 0.00 in0.0 mm
02:33 AM 54.8°F12.7°C 49.4°F9.7°C 82% 4.6 mph W7.4 kmh W 15.0 mph24.1 kmh 29.63 in1003.4 mb 0.00 in0.0 mm 0.00 in0.0 mm 0.00 in0.0 mm
02:38 AM 54.7°F12.6°C 49.3°F9.6°C 82% 6.9 mph W11.1 kmh W 18.0 mph29.0 kmh 29.63 in1003.4 mb 0.00 in0.0 mm 0.00 in0.0 mm 0.00 in0.0 mm
02:43 AM 54.5°F12.5°C 49.1°F9.5°C 82% 9.7 mph W15.6 kmh W 18.0 mph29.0 kmh 29.63 in1003.4 mb 0.00 in0.0 mm 0.00 in0.0 mm 0.00 in0.0 mm
02:48 AM 54.3°F12.4°C 48.9°F9.4°C 82% 7.6 mph W12.2 kmh W 18.0 mph29.0 kmh 29.63 in1003.4 mb 0.00 in0.0 mm 0.00 in0.0 mm 0.00 in0.0 mm
02:53 AM 54.1°F12.3°C 49.1°F9.5°C 83% 3.6 mph W5.8 kmh W 18.0 mph29.0 kmh 29.63 in1003.4 mb 0.00 in0.0 mm 0.00 in0.0 mm 0.00 in0.0 mm
02:58 AM 53.9°F12.2°C 48.9°F9.4°C 83% 9.8 mph W15.8 kmh W 17.0 mph27.4 kmh 29.64 in1003.7 mb 0.00 in0.0 mm 0.00 in0.0 mm 0.00 in0.0 mm
03:03 AM 53.8°F12.1°C 48.8°F9.3°C 83% 7.1 mph W11.4 kmh W 19.0 mph30.6 kmh 29.64 in1003.7 mb 0.00 in0.0 mm 0.00 in0.0 mm 0.00 in0.0 mm
03:08 AM 53.3°F11.8°C 47.6°F8.7°C 81% 10.5 mph W16.9 kmh W 24.0 mph38.6 kmh 29.64 in1003.7 mb 0.01 in0.3 mm 0.12 in3.0 mm 0.01 in0.3 mm
03:13 AM 52.8°F11.6°C 47.2°F8.4°C 81% 11.2 mph W18.0 kmh W 24.0 mph38.6 kmh 29.64 in1003.7 mb 0.01 in0.3 mm 0.00 in0.0 mm 0.01 in0.3 mm
03:18 AM 52.5°F11.4°C 47.2°F8.4°C 82% 5.6 mph WNW9.0 kmh WNW 24.0 mph38.6 kmh 29.64 in1003.7 mb 0.01 in0.3 mm 0.00 in0.0 mm 0.01 in0.3 mm
03:23 AM 52.1°F11.2°C 46.8°F8.2°C 82% 6.7 mph WNW10.8 kmh WNW 24.0 mph38.6 kmh 29.65 in1004.1 mb 0.01 in0.3 mm 0.00 in0.0 mm 0.01 in0.3 mm
03:28 AM 51.8°F11.0°C 46.2°F7.9°C 81% 7.7 mph WNW12.4 kmh WNW 22.0 mph35.4 kmh 29.65 in1004.1 mb 0.01 in0.3 mm 0.00 in0.0 mm 0.01 in0.3 mm
03:33 AM 51.5°F10.8°C 46.2°F7.9°C 82% 9.8 mph WNW15.8 kmh WNW 20.0 mph32.2 kmh 29.65 in1004.1 mb 0.01 in0.3 mm 0.00 in0.0 mm 0.01 in0.3 mm
03:38 AM 51.3°F10.7°C 46.3°F7.9°C 83% 7.9 mph WNW12.7 kmh WNW 20.0 mph32.2 kmh 29.66 in1004.4 mb 0.01 in0.3 mm 0.00 in0.0 mm 0.01 in0.3 mm
03:43 AM 50.6°F10.3°C 45.0°F7.2°C 81% 10.6 mph WNW17.1 kmh WNW 20.0 mph32.2 kmh 29.66 in1004.4 mb 0.01 in0.3 mm 0.00 in0.0 mm 0.01 in0.3 mm
03:48 AM 49.9°F9.9°C 44.3°F6.8°C 81% 16.1 mph WNW25.9 kmh WNW 27.0 mph43.5 kmh 29.67 in1004.7 mb 0.01 in0.3 mm 0.00 in0.0 mm 0.01 in0.3 mm
03:53 AM 49.1°F9.5°C 43.8°F6.6°C 82% 9.8 mph WNW15.8 kmh WNW 27.0 mph43.5 kmh 29.67 in1004.7 mb 0.01 in0.3 mm 0.00 in0.0 mm 0.01 in0.3 mm
03:58 AM 48.6°F9.2°C 43.4°F6.3°C 82% 8.6 mph WNW13.8 kmh WNW 27.0 mph43.5 kmh 29.67 in1004.7 mb 0.01 in0.3 mm 0.00 in0.0 mm 0.01 in0.3 mm
04:03 AM 48.3°F9.1°C 43.4°F6.3°C 83% 6.9 mph WNW11.1 kmh WNW 27.0 mph43.5 kmh 29.68 in1005.1 mb 0.01 in0.3 mm 0.00 in0.0 mm 0.01 in0.3 mm
04:08 AM 48.0°F8.9°C 43.1°F6.2°C 83% 8.9 mph WNW14.3 kmh WNW 23.0 mph37.0 kmh 29.68 in1005.1 mb 0.00 in0.0 mm 0.00 in0.0 mm 0.01 in0.3 mm
04:13 AM 47.6°F8.7°C 43.0°F6.1°C 84% 11.4 mph WNW18.3 kmh WNW 22.0 mph35.4 kmh 29.68 in1005.1 mb 0.00 in0.0 mm 0.00 in0.0 mm 0.01 in0.3 mm
04:18 AM 46.8°F8.2°C 41.9°F5.5°C 83% 13.2 mph W21.2 kmh W 25.0 mph40.2 kmh 29.69 in1005.4 mb 0.00 in0.0 mm 0.00 in0.0 mm 0.01 in0.3 mm
04:23 AM 45.7°F7.6°C 40.8°F4.9°C 83% 17.2 mph WNW27.7 kmh WNW 29.0 mph46.7 kmh 29.69 in1005.4 mb 0.00 in0.0 mm 0.00 in0.0 mm 0.01 in0.3 mm
04:28 AM 44.9°F7.2°C 40.4°F4.7°C 84% 9.8 mph WNW15.8 kmh WNW 29.0 mph46.7 kmh 29.70 in1005.8 mb 0.00 in0.0 mm 0.00 in0.0 mm 0.01 in0.3 mm
04:33 AM 44.5°F6.9°C 40.3°F4.6°C 85% 9.3 mph WNW15.0 kmh WNW 29.0 mph46.7 kmh 29.70 in1005.8 mb 0.00 in0.0 mm 0.00 in0.0 mm 0.01 in0.3 mm
04:38 AM 44.2°F6.8°C 39.7°F4.3°C 84% 9.7 mph WNW15.6 kmh WNW 29.0 mph46.7 kmh 29.71 in1006.1 mb 0.00 in0.0 mm 0.00 in0.0 mm 0.01 in0.3 mm
04:43 AM 44.0°F6.7°C 39.2°F4.0°C 83% 14.5 mph WNW23.3 kmh WNW 24.0 mph38.6 kmh 29.71 in1006.1 mb 0.00 in0.0 mm 0.00 in0.0 mm 0.01 in0.3 mm
04:48 AM 43.8°F6.6°C 39.0°F3.9°C 83% 15.0 mph WNW24.1 kmh WNW 24.0 mph38.6 kmh 29.71 in1006.1 mb 0.00 in0.0 mm 0.00 in0.0 mm 0.01 in0.3 mm
04:53 AM 43.6°F6.4°C 38.8°F3.8°C 83% 9.5 mph WNW15.3 kmh WNW 24.0 mph38.6 kmh 29.71 in1006.1 mb 0.00 in0.0 mm 0.00 in0.0 mm 0.01 in0.3 mm
04:58 AM 43.5°F6.4°C 38.7°F3.7°C 83% 7.9 mph WNW12.7 kmh WNW 24.0 mph38.6 kmh 29.72 in1006.4 mb 0.00 in0.0 mm 0.00 in0.0 mm 0.01 in0.3 mm
05:03 AM 43.3°F6.3°C 38.2°F3.4°C 82% 11.8 mph WNW19.0 kmh WNW 25.0 mph40.2 kmh 29.72 in1006.4 mb 0.00 in0.0 mm 0.00 in0.0 mm 0.01 in0.3 mm
05:08 AM 43.1°F6.2°C 37.7°F3.2°C 81% 11.2 mph WNW18.0 kmh WNW 25.0 mph40.2 kmh 29.73 in1006.8 mb 0.00 in0.0 mm 0.00 in0.0 mm 0.01 in0.3 mm
05:13 AM 42.9°F6.1°C 37.8°F3.2°C 82% 7.9 mph WNW12.7 kmh WNW 25.0 mph40.2 kmh 29.73 in1006.8 mb 0.00 in0.0 mm 0.00 in0.0 mm 0.01 in0.3 mm
05:18 AM 42.6°F5.9°C 37.5°F3.1°C 82% 7.1 mph WNW11.4 kmh WNW 25.0 mph40.2 kmh 29.74 in1007.1 mb 0.00 in0.0 mm 0.00 in0.0 mm 0.01 in0.3 mm
05:23 AM 41.9°F5.5°C 36.5°F2.5°C 81% 11.6 mph WNW18.7 kmh WNW 22.0 mph35.4 kmh 29.74 in1007.1 mb 0.00 in0.0 mm 0.00 in0.0 mm 0.01 in0.3 mm
05:28 AM 41.0°F5.0°C 35.6°F2.0°C 81% 10.1 mph WNW16.3 kmh WNW 22.0 mph35.4 kmh 29.74 in1007.1 mb 0.00 in0.0 mm 0.00 in0.0 mm 0.01 in0.3 mm
05:33 AM 40.5°F4.7°C 35.1°F1.7°C 81% 8.0 mph WNW12.9 kmh WNW 22.0 mph35.4 kmh 29.75 in1007.5 mb 0.00 in0.0 mm 0.00 in0.0 mm 0.01 in0.3 mm
05:38 AM 40.0°F4.4°C 34.0°F1.1°C 79% 13.1 mph NW21.1 kmh NW 23.0 mph37.0 kmh 29.75 in1007.5 mb 0.00 in0.0 mm 0.00 in0.0 mm 0.01 in0.3 mm
05:43 AM 39.6°F4.2°C 33.6°F0.9°C 79% 11.5 mph WNW18.5 kmh WNW 23.0 mph37.0 kmh 29.75 in1007.5 mb 0.00 in0.0 mm 0.00 in0.0 mm 0.01 in0.3 mm
05:48 AM 39.2°F4.0°C 32.9°F0.5°C 78% 12.2 mph WNW19.6 kmh WNW 23.0 mph37.0 kmh 29.76 in1007.8 mb 0.00 in0.0 mm 0.00 in0.0 mm 0.01 in0.3 mm
05:53 AM 38.9°F3.8°C 32.7°F0.4°C 78% 10.2 mph WNW16.4 kmh WNW 29.0 mph46.7 kmh 29.76 in1007.8 mb 0.00 in0.0 mm 0.00 in0.0 mm 0.01 in0.3 mm
05:58 AM 38.8°F3.8°C 32.6°F0.3°C 78% 7.6 mph NW12.2 kmh NW 29.0 mph46.7 kmh 29.76 in1007.8 mb 0.00 in0.0 mm 0.00 in0.0 mm 0.01 in0.3 mm
06:03 AM 38.6°F3.7°C 32.4°F0.2°C 78% 12.8 mph WNW20.6 kmh WNW 29.0 mph46.7 kmh 29.77 in1008.1 mb 0.00 in0.0 mm 0.00 in0.0 mm 0.01 in0.3 mm
06:08 AM 38.4°F3.6°C 32.2°F0.1°C 78% 8.2 mph WNW13.2 kmh WNW 29.0 mph46.7 kmh 29.76 in1007.8 mb 0.00 in0.0 mm 0.00 in0.0 mm 0.01 in0.3 mm
06:13 AM 38.2°F3.4°C 32.0°F0.0°C 78% 8.8 mph WNW14.2 kmh WNW 29.0 mph46.7 kmh 29.76 in1007.8 mb 0.00 in0.0 mm 0.00 in0.0 mm 0.01 in0.3 mm
06:18 AM 38.1°F3.4°C 31.6°F-0.2°C 77% 12.8 mph WNW20.6 kmh WNW 29.0 mph46.7 kmh 29.77 in1008.1 mb 0.00 in0.0 mm 0.00 in0.0 mm 0.01 in0.3 mm
06:23 AM 38.0°F3.3°C 31.8°F-0.1°C 78% 5.3 mph WNW8.5 kmh WNW 25.0 mph40.2 kmh 29.77 in1008.1 mb 0.00 in0.0 mm 0.00 in0.0 mm 0.01 in0.3 mm
06:28 AM 37.9°F3.3°C 31.7°F-0.2°C 78% 10.9 mph WNW17.5 kmh WNW 25.0 mph40.2 kmh 29.77 in1008.1 mb 0.00 in0.0 mm 0.00 in0.0 mm 0.01 in0.3 mm
06:33 AM 37.8°F3.2°C 31.3°F-0.4°C 77% 10.9 mph WNW17.5 kmh WNW 25.0 mph40.2 kmh 29.77 in1008.1 mb 0.00 in0.0 mm 0.00 in0.0 mm 0.01 in0.3 mm
06:38 AM 37.7°F3.2°C 31.5°F-0.3°C 78% 7.8 mph WNW12.6 kmh WNW 21.0 mph33.8 kmh 29.77 in1008.1 mb 0.00 in0.0 mm 0.00 in0.0 mm 0.01 in0.3 mm
06:43 AM 37.7°F3.2°C 31.5°F-0.3°C 78% 7.4 mph WNW11.9 kmh WNW 21.0 mph33.8 kmh 29.77 in1008.1 mb 0.00 in0.0 mm 0.00 in0.0 mm 0.01 in0.3 mm
06:48 AM 37.7°F3.2°C 31.8°F-0.1°C 79% 6.7 mph W10.8 kmh W 21.0 mph33.8 kmh 29.77 in1008.1 mb 0.00 in0.0 mm 0.00 in0.0 mm 0.01 in0.3 mm
06:53 AM 37.6°F3.1°C 31.7°F-0.2°C 79% 3.4 mph WNW5.5 kmh WNW 20.0 mph32.2 kmh 29.78 in1008.5 mb 0.00 in0.0 mm 0.00 in0.0 mm 0.01 in0.3 mm
06:58 AM 37.5°F3.1°C 31.0°F-0.6°C 77% 10.0 mph W16.1 kmh W 21.0 mph33.8 kmh 29.78 in1008.5 mb 0.00 in0.0 mm 0.00 in0.0 mm 0.01 in0.3 mm
07:03 AM 37.4°F3.0°C 31.2°F-0.4°C 78% 5.5 mph WNW8.9 kmh WNW 21.0 mph33.8 kmh 29.78 in1008.5 mb 0.00 in0.0 mm 0.00 in0.0 mm 0.01 in0.3 mm
07:08 AM 37.3°F2.9°C 31.1°F-0.5°C 78% 3.9 mph WNW6.3 kmh WNW 21.0 mph33.8 kmh 29.78 in1008.5 mb 0.00 in0.0 mm 0.00 in0.0 mm 0.01 in0.3 mm
07:13 AM 37.2°F2.9°C 31.0°F-0.6°C 78% 8.0 mph WNW12.9 kmh WNW 21.0 mph33.8 kmh 29.78 in1008.5 mb 0.00 in0.0 mm 0.00 in0.0 mm 0.01 in0.3 mm
07:18 AM 37.1°F2.8°C 31.2°F-0.4°C 79% 6.5 mph WNW10.5 kmh WNW 18.0 mph29.0 kmh 29.79 in1008.8 mb 0.00 in0.0 mm 0.00 in0.0 mm 0.01 in0.3 mm
07:23 AM 37.0°F2.8°C 31.1°F-0.5°C 79% 5.1 mph WNW8.2 kmh WNW 18.0 mph29.0 kmh 29.79 in1008.8 mb 0.00 in0.0 mm 0.00 in0.0 mm 0.01 in0.3 mm
07:27 AM 37.0°F2.8°C 31.4°F-0.3°C 80% 5.6 mph WNW9.0 kmh WNW 18.0 mph29.0 kmh 29.80 in1009.1 mb 0.00 in0.0 mm 0.00 in0.0 mm 0.01 in0.3 mm
07:32 AM 36.9°F2.7°C 31.3°F-0.4°C 80% 6.1 mph WNW9.8 kmh WNW 13.0 mph20.9 kmh 29.80 in1009.1 mb 0.00 in0.0 mm 0.00 in0.0 mm 0.01 in0.3 mm
07:37 AM 36.9°F2.7°C 31.3°F-0.4°C 80% 5.8 mph NW9.3 kmh NW 13.0 mph20.9 kmh 29.80 in1009.1 mb 0.00 in0.0 mm 0.00 in0.0 mm 0.01 in0.3 mm
07:42 AM 36.8°F2.7°C 30.9°F-0.6°C 79% 6.1 mph WNW9.8 kmh WNW 14.0 mph22.5 kmh 29.80 in1009.1 mb 0.00 in0.0 mm 0.00 in0.0 mm 0.01 in0.3 mm
07:47 AM 36.7°F2.6°C 30.8°F-0.7°C 79% 9.3 mph WNW15.0 kmh WNW 18.0 mph29.0 kmh 29.81 in1009.5 mb 0.00 in0.0 mm 0.00 in0.0 mm 0.01 in0.3 mm
07:52 AM 36.5°F2.5°C 30.3°F-0.9°C 78% 9.6 mph WNW15.4 kmh WNW 18.0 mph29.0 kmh 29.81 in1009.5 mb 0.00 in0.0 mm 0.00 in0.0 mm 0.01 in0.3 mm
07:57 AM 36.3°F2.4°C 29.8°F-1.2°C 77% 8.8 mph WNW14.2 kmh WNW 26.0 mph41.8 kmh 29.82 in1009.8 mb 0.00 in0.0 mm 0.00 in0.0 mm 0.01 in0.3 mm
08:02 AM 36.0°F2.2°C 29.5°F-1.4°C 77% 9.0 mph WNW14.5 kmh WNW 27.0 mph43.5 kmh 29.82 in1009.8 mb 0.00 in0.0 mm 0.00 in0.0 mm 0.01 in0.3 mm
08:07 AM 35.9°F2.2°C 29.4°F-1.4°C 77% 6.7 mph WNW10.8 kmh WNW 27.0 mph43.5 kmh 29.82 in1009.8 mb 0.00 in0.0 mm 0.00 in0.0 mm 0.01 in0.3 mm
08:12 AM 35.9°F2.2°C 29.4°F-1.4°C 77% 8.1 mph NW13.0 kmh NW 27.0 mph43.5 kmh 29.82 in1009.8 mb 0.00 in0.0 mm 0.00 in0.0 mm 0.01 in0.3 mm
08:17 AM 35.7°F2.1°C 29.2°F-1.6°C 77% 7.1 mph NW11.4 kmh NW 27.0 mph43.5 kmh 29.83 in1010.2 mb 0.00 in0.0 mm 0.00 in0.0 mm 0.01 in0.3 mm
08:22 AM 35.6°F2.0°C 29.1°F-1.6°C 77% 5.9 mph WNW9.5 kmh WNW 21.0 mph33.8 kmh 29.83 in1010.2 mb 0.00 in0.0 mm 0.00 in0.0 mm 0.01 in0.3 mm
08:27 AM 35.6°F2.0°C 29.1°F-1.6°C 77% 10.9 mph WNW17.5 kmh WNW 21.0 mph33.8 kmh 29.83 in1010.2 mb 0.00 in0.0 mm 0.00 in0.0 mm 0.01 in0.3 mm
08:32 AM 35.5°F1.9°C 29.0°F-1.7°C 77% 7.9 mph WNW12.7 kmh WNW 19.0 mph30.6 kmh 29.84 in1010.5 mb 0.00 in0.0 mm 0.00 in0.0 mm 0.01 in0.3 mm
08:37 AM 35.4°F1.9°C 28.9°F-1.7°C 77% 11.6 mph NW18.7 kmh NW 21.0 mph33.8 kmh 29.84 in1010.5 mb 0.00 in0.0 mm 0.00 in0.0 mm 0.01 in0.3 mm
08:42 AM 35.4°F1.9°C 29.2°F-1.6°C 78% 5.0 mph WNW8.0 kmh WNW 21.0 mph33.8 kmh 29.85 in1010.8 mb 0.00 in0.0 mm 0.00 in0.0 mm 0.01 in0.3 mm
08:47 AM 35.4°F1.9°C 28.9°F-1.7°C 77% 12.4 mph WNW20.0 kmh WNW 21.0 mph33.8 kmh 29.84 in1010.5 mb 0.00 in0.0 mm 0.00 in0.0 mm 0.01 in0.3 mm
08:52 AM 35.4°F1.9°C 29.2°F-1.6°C 78% 8.2 mph WNW13.2 kmh WNW 23.0 mph37.0 kmh 29.85 in1010.8 mb 0.00 in0.0 mm 0.00 in0.0 mm 0.01 in0.3 mm
08:57 AM 35.3°F1.8°C 29.2°F-1.6°C 78% 6.9 mph WNW11.1 kmh WNW 23.0 mph37.0 kmh 29.85 in1010.8 mb 0.00 in0.0 mm 0.00 in0.0 mm 0.01 in0.3 mm
09:02 AM 35.3°F1.8°C 29.2°F-1.6°C 78% 8.4 mph WNW13.5 kmh WNW 23.0 mph37.0 kmh 29.86 in1011.2 mb 0.00 in0.0 mm 0.00 in0.0 mm 0.01 in0.3 mm
09:07 AM 35.3°F1.8°C 29.2°F-1.6°C 78% 7.3 mph NW11.7 kmh NW 23.0 mph37.0 kmh 29.86 in1011.2 mb 0.00 in0.0 mm 0.00 in0.0 mm 0.01 in0.3 mm
09:12 AM 35.3°F1.8°C 29.5°F-1.4°C 79% 7.9 mph WNW12.7 kmh WNW 22.0 mph35.4 kmh 29.86 in1011.2 mb 0.00 in0.0 mm 0.00 in0.0 mm 0.01 in0.3 mm
09:17 AM 35.2°F1.8°C 29.1°F-1.6°C 78% 10.9 mph WNW17.5 kmh WNW 22.0 mph35.4 kmh 29.87 in1011.5 mb 0.00 in0.0 mm 0.00 in0.0 mm 0.01 in0.3 mm
09:22 AM 35.1°F1.7°C 29.0°F-1.7°C 78% 8.3 mph NW13.4 kmh NW 21.0 mph33.8 kmh 29.87 in1011.5 mb 0.00 in0.0 mm 0.00 in0.0 mm 0.01 in0.3 mm
09:27 AM 35.1°F1.7°C 29.3°F-1.5°C 79% 7.6 mph NW12.2 kmh NW 21.0 mph33.8 kmh 29.87 in1011.5 mb 0.00 in0.0 mm 0.00 in0.0 mm 0.01 in0.3 mm
09:32 AM 35.0°F1.7°C 28.9°F-1.7°C 78% 10.9 mph WNW17.5 kmh WNW 26.0 mph41.8 kmh 29.87 in1011.5 mb 0.00 in0.0 mm 0.00 in0.0 mm 0.01 in0.3 mm
09:37 AM 35.0°F1.7°C 29.2°F-1.6°C 79% 6.9 mph WNW11.1 kmh WNW 26.0 mph41.8 kmh 29.88 in1011.9 mb 0.00 in0.0 mm 0.00 in0.0 mm 0.01 in0.3 mm
09:42 AM 34.9°F1.6°C 29.1°F-1.6°C 79% 9.3 mph NW15.0 kmh NW 26.0 mph41.8 kmh 29.88 in1011.9 mb 0.00 in0.0 mm 0.00 in0.0 mm 0.01 in0.3 mm
09:47 AM 34.9°F1.6°C 29.1°F-1.6°C 79% 7.6 mph WNW12.2 kmh WNW 26.0 mph41.8 kmh 29.88 in1011.9 mb 0.00 in0.0 mm 0.00 in0.0 mm 0.01 in0.3 mm
09:52 AM 34.9°F1.6°C 29.1°F-1.6°C 79% 9.7 mph WNW15.6 kmh WNW 24.0 mph38.6 kmh 29.89 in1012.2 mb 0.00 in0.0 mm 0.00 in0.0 mm 0.01 in0.3 mm
09:57 AM 34.9°F1.6°C 29.1°F-1.6°C 79% 8.1 mph NW13.0 kmh NW 24.0 mph38.6 kmh 29.89 in1012.2 mb 0.00 in0.0 mm 0.00 in0.0 mm 0.01 in0.3 mm
10:02 AM 34.8°F1.6°C 29.0°F-1.7°C 79% 4.2 mph NW6.8 kmh NW 24.0 mph38.6 kmh 29.90 in1012.5 mb 0.00 in0.0 mm 0.00 in0.0 mm 0.01 in0.3 mm
10:07 AM 34.8°F1.6°C 29.0°F-1.7°C 79% 8.7 mph NW14.0 kmh NW 24.0 mph38.6 kmh 29.89 in1012.2 mb 0.00 in0.0 mm 0.00 in0.0 mm 0.01 in0.3 mm
10:12 AM 34.7°F1.5°C 28.9°F-1.7°C 79% 7.6 mph NW12.2 kmh NW 20.0 mph32.2 kmh 29.90 in1012.5 mb 0.00 in0.0 mm 0.00 in0.0 mm 0.01 in0.3 mm
10:17 AM 34.7°F1.5°C 28.6°F-1.9°C 78% 8.3 mph NW13.4 kmh NW 18.0 mph29.0 kmh 29.90 in1012.5 mb 0.00 in0.0 mm 0.00 in0.0 mm 0.01 in0.3 mm
10:22 AM 34.6°F1.4°C 28.4°F-2.0°C 78% 8.1 mph NW13.0 kmh NW 18.0 mph29.0 kmh 29.90 in1012.5 mb 0.00 in0.0 mm 0.00 in0.0 mm 0.01 in0.3 mm
10:27 AM 34.6°F1.4°C 28.5°F-1.9°C 78% 8.4 mph NW13.5 kmh NW 22.0 mph35.4 kmh 29.90 in1012.5 mb 0.00 in0.0 mm 0.00 in0.0 mm 0.01 in0.3 mm
10:32 AM 34.7°F1.5°C 28.9°F-1.7°C 79% 3.2 mph NW5.1 kmh NW 22.0 mph35.4 kmh 29.91 in1012.9 mb 0.00 in0.0 mm 0.00 in0.0 mm 0.01 in0.3 mm
10:37 AM 34.8°F1.6°C 28.6°F-1.9°C 78% 7.9 mph NW12.7 kmh NW 22.0 mph35.4 kmh 29.91 in1012.9 mb 0.00 in0.0 mm 0.00 in0.0 mm 0.01 in0.3 mm
10:42 AM 34.8°F1.6°C 28.7°F-1.8°C 78% 5.4 mph WNW8.7 kmh WNW 19.0 mph30.6 kmh 29.91 in1012.9 mb 0.00 in0.0 mm 0.00 in0.0 mm 0.01 in0.3 mm
10:47 AM 34.8°F1.6°C 28.4°F-2.0°C 77% 10.0 mph NW16.1 kmh NW 23.0 mph37.0 kmh 29.92 in1013.2 mb 0.00 in0.0 mm 0.00 in0.0 mm 0.01 in0.3 mm
10:52 AM 34.9°F1.6°C 28.5°F-1.9°C 77% 8.3 mph NW13.4 kmh NW 23.0 mph37.0 kmh 29.92 in1013.2 mb 0.00 in0.0 mm 0.00 in0.0 mm 0.01 in0.3 mm
10:57 AM 35.0°F1.7°C 28.6°F-1.9°C 77% 8.9 mph NW14.3 kmh NW 23.0 mph37.0 kmh 29.92 in1013.2 mb 0.00 in0.0 mm 0.00 in0.0 mm 0.01 in0.3 mm
11:02 AM 35.1°F1.7°C 28.6°F-1.9°C 77% 7.7 mph NW12.4 kmh NW 23.0 mph37.0 kmh 29.92 in1013.2 mb 0.00 in0.0 mm 0.00 in0.0 mm 0.01 in0.3 mm
11:07 AM 35.2°F1.8°C 28.4°F-2.0°C 76% 12.4 mph NW20.0 kmh NW 23.0 mph37.0 kmh 29.92 in1013.2 mb 0.00 in0.0 mm 0.00 in0.0 mm 0.01 in0.3 mm
11:12 AM 35.2°F1.8°C 28.4°F-2.0°C 76% 9.4 mph WNW15.1 kmh WNW 23.0 mph37.0 kmh 29.93 in1013.5 mb 0.00 in0.0 mm 0.00 in0.0 mm 0.01 in0.3 mm
11:17 AM 35.4°F1.9°C 28.6°F-1.9°C 76% 7.8 mph NW12.6 kmh NW 25.0 mph40.2 kmh 29.93 in1013.5 mb 0.00 in0.0 mm 0.00 in0.0 mm 0.01 in0.3 mm
11:22 AM 35.5°F1.9°C 28.7°F-1.8°C 76% 7.2 mph WNW11.6 kmh WNW 25.0 mph40.2 kmh 29.94 in1013.9 mb 0.00 in0.0 mm 0.00 in0.0 mm 0.01 in0.3 mm
11:27 AM 35.6°F2.0°C 28.8°F-1.8°C 76% 7.7 mph NW12.4 kmh NW 25.0 mph40.2 kmh 29.94 in1013.9 mb 0.00 in0.0 mm 0.00 in0.0 mm 0.01 in0.3 mm
11:32 AM 35.7°F2.1°C 28.6°F-1.9°C 75% 8.4 mph NW13.5 kmh NW 25.0 mph40.2 kmh 29.95 in1014.2 mb 0.00 in0.0 mm 0.00 in0.0 mm 0.01 in0.3 mm
11:37 AM 35.9°F2.2°C 29.1°F-1.6°C 76% 2.8 mph WNW4.5 kmh WNW 20.0 mph32.2 kmh 29.95 in1014.2 mb 0.00 in0.0 mm 0.00 in0.0 mm 0.01 in0.3 mm
11:42 AM 35.8°F2.1°C 28.4°F-2.0°C 74% 14.5 mph NW23.3 kmh NW 24.0 mph38.6 kmh 29.96 in1014.6 mb 0.00 in0.0 mm 0.00 in0.0 mm 0.01 in0.3 mm
11:47 AM 35.9°F2.2°C 28.5°F-1.9°C 74% 10.0 mph NW16.1 kmh NW 24.0 mph38.6 kmh 29.97 in1014.9 mb 0.00 in0.0 mm 0.00 in0.0 mm 0.01 in0.3 mm
11:52 AM 35.9°F2.2°C 28.5°F-1.9°C 74% 9.3 mph NW15.0 kmh NW 24.0 mph38.6 kmh 29.96 in1014.6 mb 0.00 in0.0 mm 0.00 in0.0 mm 0.01 in0.3 mm
11:57 AM 36.1°F2.3°C 28.7°F-1.8°C 74% 10.2 mph NW16.4 kmh NW 24.0 mph38.6 kmh 29.97 in1014.9 mb 0.00 in0.0 mm 0.00 in0.0 mm 0.01 in0.3 mm
12:02 PM 36.3°F2.4°C 28.5°F-1.9°C 73% 10.4 mph NW16.7 kmh NW 22.0 mph35.4 kmh 29.97 in1014.9 mb 0.00 in0.0 mm 0.00 in0.0 mm 0.01 in0.3 mm
12:07 PM 36.5°F2.5°C 29.1°F-1.6°C 74% 4.3 mph NW6.9 kmh NW 22.0 mph35.4 kmh 29.98 in1015.2 mb 0.00 in0.0 mm 0.00 in0.0 mm 0.01 in0.3 mm
12:12 PM 36.7°F2.6°C 28.9°F-1.7°C 73% 9.1 mph NW14.6 kmh NW 24.0 mph38.6 kmh 29.97 in1014.9 mb 0.00 in0.0 mm 0.00 in0.0 mm 0.01 in0.3 mm
12:17 PM 36.8°F2.7°C 29.0°F-1.7°C 73% 11.1 mph NW17.9 kmh NW 24.0 mph38.6 kmh 29.98 in1015.2 mb 0.00 in0.0 mm 0.00 in0.0 mm 0.01 in0.3 mm
12:22 PM 37.0°F2.8°C 28.9°F-1.7°C 72% 10.7 mph NW17.2 kmh NW 24.0 mph38.6 kmh 29.98 in1015.2 mb 0.00 in0.0 mm 0.00 in0.0 mm 0.01 in0.3 mm
12:26 PM 37.0°F2.8°C 28.5°F-1.9°C 71% 10.4 mph WNW16.7 kmh WNW 26.0 mph41.8 kmh 29.98 in1015.2 mb 0.00 in0.0 mm 0.00 in0.0 mm 0.01 in0.3 mm
12:31 PM 37.1°F2.8°C 28.3°F-2.1°C 70% 14.1 mph NW22.7 kmh NW 26.0 mph41.8 kmh 29.98 in1015.2 mb 0.00 in0.0 mm 0.00 in0.0 mm 0.01 in0.3 mm
12:36 PM 36.9°F2.7°C 28.1°F-2.2°C 70% 12.1 mph NW19.5 kmh NW 27.0 mph43.5 kmh 29.99 in1015.6 mb 0.00 in0.0 mm 0.00 in0.0 mm 0.01 in0.3 mm
12:41 PM 37.1°F2.8°C 28.3°F-2.1°C 70% 13.3 mph WNW21.4 kmh WNW 30.0 mph48.3 kmh 29.98 in1015.2 mb 0.00 in0.0 mm 0.00 in0.0 mm 0.01 in0.3 mm
12:46 PM 37.6°F3.1°C 29.4°F-1.4°C 72% 7.2 mph NW11.6 kmh NW 30.0 mph48.3 kmh 29.99 in1015.6 mb 0.00 in0.0 mm 0.00 in0.0 mm 0.01 in0.3 mm
12:51 PM 37.4°F3.0°C 28.6°F-1.9°C 70% 8.4 mph NW13.5 kmh NW 30.0 mph48.3 kmh 29.98 in1015.2 mb 0.00 in0.0 mm 0.00 in0.0 mm 0.01 in0.3 mm
12:56 PM 37.3°F2.9°C 28.5°F-1.9°C 70% 6.3 mph NW10.1 kmh NW 30.0 mph48.3 kmh 29.99 in1015.6 mb 0.00 in0.0 mm 0.00 in0.0 mm 0.01 in0.3 mm
01:01 PM 37.7°F3.2°C 28.9°F-1.7°C 70% 7.7 mph NW12.4 kmh NW 24.0 mph38.6 kmh 29.99 in1015.6 mb 0.00 in0.0 mm 0.00 in0.0 mm 0.01 in0.3 mm
01:06 PM 37.6°F3.1°C 28.4°F-2.0°C 69% 9.6 mph NW15.4 kmh NW 24.0 mph38.6 kmh 29.99 in1015.6 mb 0.00 in0.0 mm 0.00 in0.0 mm 0.01 in0.3 mm
01:11 PM 37.6°F3.1°C 28.4°F-2.0°C 69% 10.2 mph NW16.4 kmh NW 23.0 mph37.0 kmh 29.99 in1015.6 mb 0.00 in0.0 mm 0.00 in0.0 mm 0.01 in0.3 mm
01:16 PM 38.0°F3.3°C 29.1°F-1.6°C 70% 6.7 mph NW10.8 kmh NW 19.0 mph30.6 kmh 29.99 in1015.6 mb 0.00 in0.0 mm 0.00 in0.0 mm 0.01 in0.3 mm
01:21 PM 38.3°F3.5°C 29.0°F-1.7°C 69% 6.8 mph NW10.9 kmh NW 22.0 mph35.4 kmh 29.99 in1015.6 mb 0.00 in0.0 mm 0.00 in0.0 mm 0.01 in0.3 mm
01:26 PM 38.0°F3.3°C 28.8°F-1.8°C 69% 10.0 mph NNW16.1 kmh NNW 22.0 mph35.4 kmh 30.00 in1015.9 mb 0.00 in0.0 mm 0.00 in0.0 mm 0.01 in0.3 mm
01:31 PM 37.6°F3.1°C 28.1°F-2.2°C 68% 9.1 mph NW14.6 kmh NW 24.0 mph38.6 kmh 29.99 in1015.6 mb 0.00 in0.0 mm 0.00 in0.0 mm 0.01 in0.3 mm
01:36 PM 37.5°F3.1°C 28.3°F-2.1°C 69% 8.3 mph NW13.4 kmh NW 24.0 mph38.6 kmh 29.99 in1015.6 mb 0.00 in0.0 mm 0.00 in0.0 mm 0.01 in0.3 mm
01:41 PM 38.0°F3.3°C 28.5°F-1.9°C 68% 9.8 mph NW15.8 kmh NW 24.0 mph38.6 kmh 29.99 in1015.6 mb 0.00 in0.0 mm 0.00 in0.0 mm 0.01 in0.3 mm
01:46 PM 37.8°F3.2°C 28.6°F-1.9°C 69% 12.4 mph WNW20.0 kmh WNW 24.0 mph38.6 kmh 29.99 in1015.6 mb 0.00 in0.0 mm 0.00 in0.0 mm 0.01 in0.3 mm
01:51 PM 38.1°F3.4°C 28.9°F-1.7°C 69% 9.1 mph NW14.6 kmh NW 22.0 mph35.4 kmh 30.00 in1015.9 mb 0.00 in0.0 mm 0.00 in0.0 mm 0.01 in0.3 mm
01:56 PM 38.1°F3.4°C 28.9°F-1.7°C 69% 7.9 mph WNW12.7 kmh WNW 23.0 mph37.0 kmh 30.00 in1015.9 mb 0.00 in0.0 mm 0.00 in0.0 mm 0.01 in0.3 mm
02:01 PM 38.5°F3.6°C 29.3°F-1.5°C 69% 8.9 mph NW14.3 kmh NW 23.0 mph37.0 kmh 30.00 in1015.9 mb 0.00 in0.0 mm 0.00 in0.0 mm 0.01 in0.3 mm
02:06 PM 38.4°F3.6°C 28.5°F-1.9°C 67% 7.1 mph NW11.4 kmh NW 23.0 mph37.0 kmh 30.00 in1015.9 mb 0.00 in0.0 mm 0.00 in0.0 mm 0.01 in0.3 mm
02:11 PM 38.2°F3.4°C 28.6°F-1.9°C 68% 9.6 mph NW15.4 kmh NW 23.0 mph37.0 kmh 30.00 in1015.9 mb 0.00 in0.0 mm 0.00 in0.0 mm 0.01 in0.3 mm
02:16 PM 38.5°F3.6°C 28.9°F-1.7°C 68% 9.6 mph NW15.4 kmh NW 22.0 mph35.4 kmh 30.00 in1015.9 mb 0.00 in0.0 mm 0.00 in0.0 mm 0.01 in0.3 mm
02:21 PM 38.6°F3.7°C 29.0°F-1.7°C 68% 9.4 mph NW15.1 kmh NW 22.0 mph35.4 kmh 30.00 in1015.9 mb 0.00 in0.0 mm 0.00 in0.0 mm 0.01 in0.3 mm
02:26 PM 38.8°F3.8°C 28.9°F-1.7°C 67% 8.3 mph NW13.4 kmh NW 23.0 mph37.0 kmh 30.00 in1015.9 mb 0.00 in0.0 mm 0.00 in0.0 mm 0.01 in0.3 mm
02:31 PM 38.3°F3.5°C 28.0°F-2.2°C 66% 12.7 mph NW20.4 kmh NW 23.0 mph37.0 kmh 29.99 in1015.6 mb 0.00 in0.0 mm 0.00 in0.0 mm 0.01 in0.3 mm
02:36 PM 38.3°F3.5°C 28.7°F-1.8°C 68% 9.0 mph NW14.5 kmh NW 23.0 mph37.0 kmh 29.99 in1015.6 mb 0.00 in0.0 mm 0.00 in0.0 mm 0.01 in0.3 mm
02:41 PM 38.1°F3.4°C 28.5°F-1.9°C 68% 10.7 mph NW17.2 kmh NW 22.0 mph35.4 kmh 29.99 in1015.6 mb 0.00 in0.0 mm 0.00 in0.0 mm 0.01 in0.3 mm
02:46 PM 38.5°F3.6°C 28.6°F-1.9°C 67% 8.2 mph NW13.2 kmh NW 22.0 mph35.4 kmh 29.99 in1015.6 mb 0.00 in0.0 mm 0.00 in0.0 mm 0.01 in0.3 mm
02:51 PM 38.4°F3.6°C 28.1°F-2.2°C 66% 12.5 mph WNW20.1 kmh WNW 31.0 mph49.9 kmh 29.99 in1015.6 mb 0.00 in0.0 mm 0.00 in0.0 mm 0.01 in0.3 mm
02:56 PM 38.3°F3.5°C 27.9°F-2.3°C 66% 13.0 mph NW20.9 kmh NW 31.0 mph49.9 kmh 29.99 in1015.6 mb 0.00 in0.0 mm 0.00 in0.0 mm 0.01 in0.3 mm
03:01 PM 38.4°F3.6°C 28.5°F-1.9°C 67% 7.3 mph NW11.7 kmh NW 31.0 mph49.9 kmh 29.99 in1015.6 mb 0.00 in0.0 mm 0.00 in0.0 mm 0.01 in0.3 mm
03:06 PM 38.7°F3.7°C 28.0°F-2.2°C 65% 9.2 mph NW14.8 kmh NW 31.0 mph49.9 kmh 29.99 in1015.6 mb 0.00 in0.0 mm 0.00 in0.0 mm 0.01 in0.3 mm
03:11 PM 39.1°F3.9°C 28.4°F-2.0°C 65% 7.9 mph WNW12.7 kmh WNW 26.0 mph41.8 kmh 29.99 in1015.6 mb 0.00 in0.0 mm 0.00 in0.0 mm 0.01 in0.3 mm
03:16 PM 38.9°F3.8°C 27.8°F-2.3°C 64% 14.0 mph WNW22.5 kmh WNW 23.0 mph37.0 kmh 29.99 in1015.6 mb 0.00 in0.0 mm 0.00 in0.0 mm 0.01 in0.3 mm
03:21 PM 38.9°F3.8°C 27.8°F-2.3°C 64% 10.5 mph NW16.9 kmh NW 25.0 mph40.2 kmh 29.98 in1015.2 mb 0.00 in0.0 mm 0.00 in0.0 mm 0.01 in0.3 mm
03:26 PM 39.2°F4.0°C 27.7°F-2.4°C 63% 9.3 mph NW15.0 kmh NW 25.0 mph40.2 kmh 29.99 in1015.6 mb 0.00 in0.0 mm 0.00 in0.0 mm 0.01 in0.3 mm
03:31 PM 39.4°F4.1°C 28.3°F-2.1°C 64% 5.5 mph WNW8.9 kmh WNW 25.0 mph40.2 kmh 29.99 in1015.6 mb 0.00 in0.0 mm 0.00 in0.0 mm 0.01 in0.3 mm
03:36 PM 39.7°F4.3°C 27.7°F-2.4°C 62% 8.1 mph NW13.0 kmh NW 25.0 mph40.2 kmh 29.99 in1015.6 mb 0.00 in0.0 mm 0.00 in0.0 mm 0.01 in0.3 mm
03:41 PM 39.7°F4.3°C 28.5°F-1.9°C 64% 9.4 mph WNW15.1 kmh WNW 18.0 mph29.0 kmh 29.99 in1015.6 mb 0.00 in0.0 mm 0.00 in0.0 mm 0.01 in0.3 mm
03:46 PM 39.8°F4.3°C 28.6°F-1.9°C 64% 6.3 mph WNW10.1 kmh WNW 22.0 mph35.4 kmh 29.99 in1015.6 mb 0.00 in0.0 mm 0.00 in0.0 mm 0.01 in0.3 mm
03:51 PM 40.1°F4.5°C 29.0°F-1.7°C 64% 6.5 mph NW10.5 kmh NW 22.0 mph35.4 kmh 30.00 in1015.9 mb 0.00 in0.0 mm 0.00 in0.0 mm 0.01 in0.3 mm
03:56 PM 40.4°F4.7°C 29.3°F-1.5°C 64% 10.1 mph WNW16.3 kmh WNW 22.0 mph35.4 kmh 29.99 in1015.6 mb 0.00 in0.0 mm 0.00 in0.0 mm 0.01 in0.3 mm
04:01 PM 40.1°F4.5°C 28.9°F-1.7°C 64% 10.0 mph WNW16.1 kmh WNW 22.0 mph35.4 kmh 29.99 in1015.6 mb 0.00 in0.0 mm 0.00 in0.0 mm 0.01 in0.3 mm
04:06 PM 39.7°F4.3°C 29.0°F-1.7°C 65% 7.3 mph NW11.7 kmh NW 18.0 mph29.0 kmh 30.00 in1015.9 mb 0.00 in0.0 mm 0.00 in0.0 mm 0.01 in0.3 mm
04:11 PM 39.8°F4.3°C 28.7°F-1.8°C 64% 10.2 mph WNW16.4 kmh WNW 20.0 mph32.2 kmh 30.00 in1015.9 mb 0.00 in0.0 mm 0.00 in0.0 mm 0.01 in0.3 mm
04:16 PM 40.0°F4.4°C 28.4°F-2.0°C 63% 9.0 mph NW14.5 kmh NW 20.0 mph32.2 kmh 30.01 in1016.3 mb 0.00 in0.0 mm 0.00 in0.0 mm 0.01 in0.3 mm
04:21 PM 40.0°F4.4°C 28.5°F-1.9°C 63% 8.6 mph WNW13.8 kmh WNW 23.0 mph37.0 kmh 30.01 in1016.3 mb 0.00 in0.0 mm 0.00 in0.0 mm 0.01 in0.3 mm
04:27 PM 40.2°F4.6°C 27.8°F-2.3°C 61% 9.8 mph NW15.8 kmh NW 23.0 mph37.0 kmh 30.02 in1016.6 mb 0.00 in0.0 mm 0.00 in0.0 mm 0.01 in0.3 mm
04:31 PM 39.9°F4.4°C 28.0°F-2.2°C 62% 6.5 mph NW10.5 kmh NW 23.0 mph37.0 kmh 30.02 in1016.6 mb 0.00 in0.0 mm 0.00 in0.0 mm 0.01 in0.3 mm
04:37 PM 40.0°F4.4°C 27.7°F-2.4°C 61% 11.0 mph WNW17.7 kmh WNW 23.0 mph37.0 kmh 30.02 in1016.6 mb 0.00 in0.0 mm 0.00 in0.0 mm 0.01 in0.3 mm
04:42 PM 40.0°F4.4°C 27.7°F-2.4°C 61% 7.2 mph NW11.6 kmh NW 20.0 mph32.2 kmh 30.03 in1016.9 mb 0.00 in0.0 mm 0.00 in0.0 mm 0.01 in0.3 mm
04:47 PM 40.0°F4.4°C 27.7°F-2.4°C 61% 8.4 mph NW13.5 kmh NW 20.0 mph32.2 kmh 30.03 in1016.9 mb 0.00 in0.0 mm 0.00 in0.0 mm 0.01 in0.3 mm
04:52 PM 40.3°F4.6°C 28.0°F-2.2°C 61% 7.2 mph WNW11.6 kmh WNW 20.0 mph32.2 kmh 30.03 in1016.9 mb 0.00 in0.0 mm 0.00 in0.0 mm 0.01 in0.3 mm
04:57 PM 40.1°F4.5°C 27.8°F-2.3°C 61% 9.4 mph WNW15.1 kmh WNW 18.0 mph29.0 kmh 30.03 in1016.9 mb 0.00 in0.0 mm 0.00 in0.0 mm 0.01 in0.3 mm
05:02 PM 40.1°F4.5°C 27.8°F-2.3°C 61% 8.4 mph NW13.5 kmh NW 19.0 mph30.6 kmh 30.03 in1016.9 mb 0.00 in0.0 mm 0.00 in0.0 mm 0.01 in0.3 mm
05:07 PM 40.2°F4.6°C 27.5°F-2.5°C 60% 6.8 mph NW10.9 kmh NW 20.0 mph32.2 kmh 30.04 in1017.3 mb 0.00 in0.0 mm 0.00 in0.0 mm 0.01 in0.3 mm
05:12 PM 40.2°F4.6°C 27.5°F-2.5°C 60% 8.8 mph NW14.2 kmh NW 20.0 mph32.2 kmh 30.05 in1017.6 mb 0.00 in0.0 mm 0.00 in0.0 mm 0.01 in0.3 mm
05:17 PM 40.0°F4.4°C 26.9°F-2.8°C 59% 8.2 mph WNW13.2 kmh WNW 21.0 mph33.8 kmh 30.05 in1017.6 mb 0.00 in0.0 mm 0.00 in0.0 mm 0.01 in0.3 mm
05:20 PM 40.0°F4.4°C 26.5°F-3.1°C 58% 5.9 mph NW9.5 kmh NW 21.0 mph33.8 kmh 30.06 in1017.9 mb 0.00 in0.0 mm 0.00 in0.0 mm 0.01 in0.3 mm
05:26 PM 39.9°F4.4°C 25.9°F-3.4°C 57% 7.3 mph NW11.7 kmh NW 21.0 mph33.8 kmh 30.06 in1017.9 mb 0.00 in0.0 mm 0.00 in0.0 mm 0.01 in0.3 mm
05:31 PM 39.9°F4.4°C 25.5°F-3.6°C 56% 9.4 mph NW15.1 kmh NW 21.0 mph33.8 kmh 30.06 in1017.9 mb 0.00 in0.0 mm 0.00 in0.0 mm 0.01 in0.3 mm
05:36 PM 39.9°F4.4°C 25.1°F-3.8°C 55% 8.9 mph NW14.3 kmh NW 19.0 mph30.6 kmh 30.06 in1017.9 mb 0.00 in0.0 mm 0.00 in0.0 mm 0.01 in0.3 mm
05:41 PM 39.6°F4.2°C 24.8°F-4.0°C 55% 9.5 mph NW15.3 kmh NW 25.0 mph40.2 kmh 30.06 in1017.9 mb 0.00 in0.0 mm 0.00 in0.0 mm 0.01 in0.3 mm
05:46 PM 39.6°F4.2°C 24.8°F-4.0°C 55% 9.4 mph NW15.1 kmh NW 25.0 mph40.2 kmh 30.06 in1017.9 mb 0.00 in0.0 mm 0.00 in0.0 mm 0.01 in0.3 mm
05:51 PM 39.7°F4.3°C 24.8°F-4.0°C 55% 9.7 mph NW15.6 kmh NW 25.0 mph40.2 kmh 30.06 in1017.9 mb 0.00 in0.0 mm 0.00 in0.0 mm 0.01 in0.3 mm
05:56 PM 39.7°F4.3°C 25.3°F-3.7°C 56% 7.2 mph NW11.6 kmh NW 21.0 mph33.8 kmh 30.06 in1017.9 mb 0.00 in0.0 mm 0.00 in0.0 mm 0.01 in0.3 mm
06:01 PM 39.6°F4.2°C 25.6°F-3.6°C 57% 6.9 mph NW11.1 kmh NW 19.0 mph30.6 kmh 30.06 in1017.9 mb 0.00 in0.0 mm 0.00 in0.0 mm 0.01 in0.3 mm
06:06 PM 39.6°F4.2°C 26.1°F-3.3°C 58% 5.4 mph WNW8.7 kmh WNW 18.0 mph29.0 kmh 30.06 in1017.9 mb 0.00 in0.0 mm 0.00 in0.0 mm 0.01 in0.3 mm
06:11 PM 39.6°F4.2°C 26.5°F-3.1°C 59% 5.4 mph WNW8.7 kmh WNW 18.0 mph29.0 kmh 30.07 in1018.3 mb 0.00 in0.0 mm 0.00 in0.0 mm 0.01 in0.3 mm
06:16 PM 39.6°F4.2°C 26.4°F-3.1°C 59% 3.8 mph NW6.1 kmh NW 18.0 mph29.0 kmh 30.07 in1018.3 mb 0.00 in0.0 mm 0.00 in0.0 mm 0.01 in0.3 mm
06:21 PM 39.5°F4.2°C 26.0°F-3.3°C 58% 4.5 mph NW7.2 kmh NW 15.0 mph24.1 kmh 30.07 in1018.3 mb 0.00 in0.0 mm 0.00 in0.0 mm 0.01 in0.3 mm
06:26 PM 39.2°F4.0°C 25.3°F-3.7°C 57% 6.6 mph WNW10.6 kmh WNW 15.0 mph24.1 kmh 30.07 in1018.3 mb 0.00 in0.0 mm 0.00 in0.0 mm 0.01 in0.3 mm
06:31 PM 39.0°F3.9°C 25.5°F-3.6°C 58% 6.9 mph NW11.1 kmh NW 16.0 mph25.7 kmh 30.07 in1018.3 mb 0.00 in0.0 mm 0.00 in0.0 mm 0.01 in0.3 mm
06:36 PM 38.9°F3.8°C 25.0°F-3.9°C 57% 5.4 mph NW8.7 kmh NW 16.0 mph25.7 kmh 30.07 in1018.3 mb 0.00 in0.0 mm 0.00 in0.0 mm 0.01 in0.3 mm
06:41 PM 38.8°F3.8°C 24.9°F-3.9°C 57% 7.3 mph NW11.7 kmh NW 16.0 mph25.7 kmh 30.07 in1018.3 mb 0.00 in0.0 mm 0.00 in0.0 mm 0.01 in0.3 mm
06:46 PM 38.6°F3.7°C 24.3°F-4.3°C 56% 6.4 mph NW10.3 kmh NW 16.0 mph25.7 kmh 30.08 in1018.6 mb 0.00 in0.0 mm 0.00 in0.0 mm 0.01 in0.3 mm
06:51 PM 38.4°F3.6°C 24.5°F-4.2°C 57% 2.1 mph WNW3.4 kmh WNW 13.0 mph20.9 kmh 30.08 in1018.6 mb 0.00 in0.0 mm 0.00 in0.0 mm 0.01 in0.3 mm
06:56 PM 38.3°F3.5°C 24.9°F-3.9°C 58% 4.4 mph NW7.1 kmh NW 16.0 mph25.7 kmh 30.08 in1018.6 mb 0.00 in0.0 mm 0.00 in0.0 mm 0.01 in0.3 mm
07:01 PM 38.1°F3.4°C 24.2°F-4.3°C 57% 4.2 mph NW6.8 kmh NW 16.0 mph25.7 kmh 30.09 in1019.0 mb 0.00 in0.0 mm 0.00 in0.0 mm 0.01 in0.3 mm
07:06 PM 38.0°F3.3°C 24.1°F-4.4°C 57% 4.7 mph NW7.6 kmh NW 16.0 mph25.7 kmh 30.09 in1019.0 mb 0.00 in0.0 mm 0.00 in0.0 mm 0.01 in0.3 mm
07:11 PM 38.0°F3.3°C 23.7°F-4.6°C 56% 6.0 mph NW9.7 kmh NW 16.0 mph25.7 kmh 30.10 in1019.3 mb 0.00 in0.0 mm 0.00 in0.0 mm 0.01 in0.3 mm
07:16 PM 37.9°F3.3°C 23.6°F-4.7°C 56% 4.0 mph NW6.4 kmh NW 13.0 mph20.9 kmh 30.10 in1019.3 mb 0.00 in0.0 mm 0.00 in0.0 mm 0.01 in0.3 mm
07:21 PM 37.6°F3.1°C 23.8°F-4.6°C 57% 1.8 mph WNW2.9 kmh WNW 13.0 mph20.9 kmh 30.10 in1019.3 mb 0.00 in0.0 mm 0.00 in0.0 mm 0.01 in0.3 mm
07:26 PM 37.6°F3.1°C 23.8°F-4.6°C 57% 3.5 mph WNW5.6 kmh WNW 13.0 mph20.9 kmh 30.10 in1019.3 mb 0.00 in0.0 mm 0.00 in0.0 mm 0.01 in0.3 mm
07:31 PM 37.5°F3.1°C 23.7°F-4.6°C 57% 3.6 mph NW5.8 kmh NW 10.0 mph16.1 kmh 30.11 in1019.6 mb 0.00 in0.0 mm 0.00 in0.0 mm 0.01 in0.3 mm
07:36 PM 37.3°F2.9°C 23.9°F-4.5°C 58% 3.2 mph NW5.1 kmh NW 9.0 mph14.5 kmh 30.11 in1019.6 mb 0.00 in0.0 mm 0.00 in0.0 mm 0.01 in0.3 mm
07:41 PM 37.2°F2.9°C 23.8°F-4.6°C 58% 2.1 mph NW3.4 kmh NW 9.0 mph14.5 kmh 30.12 in1020.0 mb 0.00 in0.0 mm 0.00 in0.0 mm 0.01 in0.3 mm
07:46 PM 37.1°F2.8°C 23.7°F-4.6°C 58% 3.6 mph NW5.8 kmh NW 10.0 mph16.1 kmh 30.12 in1020.0 mb 0.00 in0.0 mm 0.00 in0.0 mm 0.01 in0.3 mm
07:51 PM 37.0°F2.8°C 23.6°F-4.7°C 58% 3.8 mph NW6.1 kmh NW 16.0 mph25.7 kmh 30.12 in1020.0 mb 0.00 in0.0 mm 0.00 in0.0 mm 0.01 in0.3 mm
07:56 PM 36.9°F2.7°C 23.5°F-4.7°C 58% 3.3 mph WNW5.3 kmh WNW 16.0 mph25.7 kmh 30.12 in1020.0 mb 0.00 in0.0 mm 0.00 in0.0 mm 0.01 in0.3 mm
08:01 PM 37.0°F2.8°C 23.2°F-4.9°C 57% 4.9 mph WNW7.9 kmh WNW 16.0 mph25.7 kmh 30.13 in1020.3 mb 0.00 in0.0 mm 0.00 in0.0 mm 0.01 in0.3 mm
08:06 PM 36.9°F2.7°C 23.5°F-4.7°C 58% 2.4 mph WNW3.9 kmh WNW 11.0 mph17.7 kmh 30.13 in1020.3 mb 0.00 in0.0 mm 0.00 in0.0 mm 0.01 in0.3 mm
08:11 PM 36.7°F2.6°C 23.3°F-4.8°C 58% 2.4 mph WNW3.9 kmh WNW 11.0 mph17.7 kmh 30.14 in1020.7 mb 0.00 in0.0 mm 0.00 in0.0 mm 0.01 in0.3 mm
08:16 PM 36.5°F2.5°C 23.5°F-4.7°C 59% 3.0 mph WNW4.8 kmh WNW 9.0 mph14.5 kmh 30.14 in1020.7 mb 0.00 in0.0 mm 0.00 in0.0 mm 0.01 in0.3 mm
08:21 PM 36.4°F2.4°C 23.5°F-4.7°C 59% 5.3 mph WNW8.5 kmh WNW 9.0 mph14.5 kmh 30.14 in1020.7 mb 0.00 in0.0 mm 0.00 in0.0 mm 0.01 in0.3 mm
08:26 PM 36.3°F2.4°C 23.4°F-4.8°C 59% 3.8 mph NW6.1 kmh NW 10.0 mph16.1 kmh 30.14 in1020.7 mb 0.00 in0.0 mm 0.00 in0.0 mm 0.01 in0.3 mm
08:31 PM 36.3°F2.4°C 23.4°F-4.8°C 59% 3.9 mph NW6.3 kmh NW 10.0 mph16.1 kmh 30.15 in1021.0 mb 0.00 in0.0 mm 0.00 in0.0 mm 0.01 in0.3 mm
08:36 PM 36.2°F2.3°C 23.2°F-4.9°C 59% 3.4 mph NW5.5 kmh NW 10.0 mph16.1 kmh 30.15 in1021.0 mb 0.00 in0.0 mm 0.00 in0.0 mm 0.01 in0.3 mm
08:41 PM 36.1°F2.3°C 23.2°F-4.9°C 59% 7.2 mph WNW11.6 kmh WNW 16.0 mph25.7 kmh 30.15 in1021.0 mb 0.00 in0.0 mm 0.00 in0.0 mm 0.01 in0.3 mm
08:46 PM 36.0°F2.2°C 22.7°F-5.2°C 58% 3.9 mph WNW6.3 kmh WNW 16.0 mph25.7 kmh 30.15 in1021.0 mb 0.00 in0.0 mm 0.00 in0.0 mm 0.01 in0.3 mm
08:51 PM 35.9°F2.2°C 22.6°F-5.2°C 58% 5.6 mph NW9.0 kmh NW 16.0 mph25.7 kmh 30.16 in1021.3 mb 0.00 in0.0 mm 0.00 in0.0 mm 0.01 in0.3 mm
08:56 PM 35.9°F2.2°C 22.2°F-5.4°C 57% 6.6 mph NW10.6 kmh NW 16.0 mph25.7 kmh 30.16 in1021.3 mb 0.00 in0.0 mm 0.00 in0.0 mm 0.01 in0.3 mm
09:01 PM 35.9°F2.2°C 22.2°F-5.4°C 57% 5.6 mph NW9.0 kmh NW 15.0 mph24.1 kmh 30.16 in1021.3 mb 0.00 in0.0 mm 0.00 in0.0 mm 0.01 in0.3 mm
09:06 PM 35.8°F2.1°C 22.1°F-5.5°C 57% 5.3 mph NW8.5 kmh NW 15.0 mph24.1 kmh 30.16 in1021.3 mb 0.00 in0.0 mm 0.00 in0.0 mm 0.01 in0.3 mm
09:11 PM 35.7°F2.1°C 21.5°F-5.8°C 56% 8.8 mph NW14.2 kmh NW 21.0 mph33.8 kmh 30.17 in1021.7 mb 0.00 in0.0 mm 0.00 in0.0 mm 0.01 in0.3 mm
09:16 PM 35.6°F2.0°C 21.0°F-6.1°C 55% 5.3 mph NW8.5 kmh NW 22.0 mph35.4 kmh 30.17 in1021.7 mb 0.00 in0.0 mm 0.00 in0.0 mm 0.01 in0.3 mm
09:21 PM 35.5°F1.9°C 21.4°F-5.9°C 56% 5.6 mph NW9.0 kmh NW 22.0 mph35.4 kmh 30.17 in1021.7 mb 0.00 in0.0 mm 0.00 in0.0 mm 0.01 in0.3 mm
09:26 PM 35.3°F1.8°C 21.2°F-6.0°C 56% 5.5 mph NW8.9 kmh NW 22.0 mph35.4 kmh 30.17 in1021.7 mb 0.00 in0.0 mm 0.00 in0.0 mm 0.01 in0.3 mm
09:31 PM 35.3°F1.8°C 21.6°F-5.8°C 57% 4.6 mph NW7.4 kmh NW 14.0 mph22.5 kmh 30.17 in1021.7 mb 0.00 in0.0 mm 0.00 in0.0 mm 0.01 in0.3 mm
09:36 PM 35.1°F1.7°C 21.4°F-5.9°C 57% 7.4 mph NW11.9 kmh NW 15.0 mph24.1 kmh 30.17 in1021.7 mb 0.00 in0.0 mm 0.00 in0.0 mm 0.01 in0.3 mm
09:41 PM 35.0°F1.7°C 21.3°F-5.9°C 57% 7.4 mph NW11.9 kmh NW 15.0 mph24.1 kmh 30.18 in1022.0 mb 0.00 in0.0 mm 0.00 in0.0 mm 0.01 in0.3 mm
09:46 PM 34.9°F1.6°C 21.6°F-5.8°C 58% 4.4 mph NW7.1 kmh NW 15.0 mph24.1 kmh 30.18 in1022.0 mb 0.00 in0.0 mm 0.00 in0.0 mm 0.01 in0.3 mm
09:51 PM 34.7°F1.5°C 21.4°F-5.9°C 58% 6.1 mph WNW9.8 kmh WNW 15.0 mph24.1 kmh 30.18 in1022.0 mb 0.00 in0.0 mm 0.00 in0.0 mm 0.01 in0.3 mm
09:56 PM 34.6°F1.4°C 21.8°F-5.7°C 59% 4.3 mph NW6.9 kmh NW 15.0 mph24.1 kmh 30.18 in1022.0 mb 0.00 in0.0 mm 0.00 in0.0 mm 0.01 in0.3 mm
10:01 PM 34.5°F1.4°C 21.3°F-5.9°C 58% 3.8 mph NW6.1 kmh NW 13.0 mph20.9 kmh 30.18 in1022.0 mb 0.00 in0.0 mm 0.00 in0.0 mm 0.01 in0.3 mm
10:06 PM 34.4°F1.3°C 21.2°F-6.0°C 58% 4.5 mph NW7.2 kmh NW 13.0 mph20.9 kmh 30.18 in1022.0 mb 0.00 in0.0 mm 0.00 in0.0 mm 0.01 in0.3 mm
10:11 PM 34.2°F1.2°C 21.4°F-5.9°C 59% 2.2 mph WNW3.5 kmh WNW 13.0 mph20.9 kmh 30.18 in1022.0 mb 0.00 in0.0 mm 0.00 in0.0 mm 0.01 in0.3 mm
10:16 PM 34.0°F1.1°C 21.6°F-5.8°C 60% 4.1 mph WNW6.6 kmh WNW 11.0 mph17.7 kmh 30.18 in1022.0 mb 0.00 in0.0 mm 0.00 in0.0 mm 0.01 in0.3 mm
10:21 PM 33.8°F1.0°C 21.8°F-5.7°C 61% 3.6 mph WNW5.8 kmh WNW 11.0 mph17.7 kmh 30.19 in1022.4 mb 0.00 in0.0 mm 0.00 in0.0 mm 0.01 in0.3 mm
10:26 PM 33.6°F0.9°C 22.0°F-5.6°C 62% 5.6 mph WNW9.0 kmh WNW 11.0 mph17.7 kmh 30.19 in1022.4 mb 0.00 in0.0 mm 0.00 in0.0 mm 0.01 in0.3 mm
10:31 PM 33.5°F0.8°C 21.9°F-5.6°C 62% 3.4 mph NW5.5 kmh NW 12.0 mph19.3 kmh 30.19 in1022.4 mb 0.00 in0.0 mm 0.00 in0.0 mm 0.01 in0.3 mm
10:36 PM 33.5°F0.8°C 21.9°F-5.6°C 62% 5.9 mph NW9.5 kmh NW 12.0 mph19.3 kmh 30.19 in1022.4 mb 0.00 in0.0 mm 0.00 in0.0 mm 0.01 in0.3 mm
10:41 PM 33.4°F0.8°C 21.8°F-5.7°C 62% 5.1 mph NW8.2 kmh NW 12.0 mph19.3 kmh 30.19 in1022.4 mb 0.00 in0.0 mm 0.00 in0.0 mm 0.01 in0.3 mm
10:46 PM 33.3°F0.7°C 22.1°F-5.5°C 63% 3.7 mph NW6.0 kmh NW 12.0 mph19.3 kmh 30.19 in1022.4 mb 0.00 in0.0 mm 0.00 in0.0 mm 0.01 in0.3 mm
10:51 PM 33.2°F0.7°C 22.0°F-5.6°C 63% 3.8 mph WNW6.1 kmh WNW 13.0 mph20.9 kmh 30.19 in1022.4 mb 0.00 in0.0 mm 0.00 in0.0 mm 0.01 in0.3 mm
10:56 PM 33.0°F0.6°C 21.8°F-5.7°C 63% 4.3 mph NW6.9 kmh NW 13.0 mph20.9 kmh 30.20 in1022.7 mb 0.00 in0.0 mm 0.00 in0.0 mm 0.01 in0.3 mm
11:01 PM 32.9°F0.5°C 22.1°F-5.5°C 64% 3.6 mph WNW5.8 kmh WNW 13.0 mph20.9 kmh 30.20 in1022.7 mb 0.00 in0.0 mm 0.00 in0.0 mm 0.01 in0.3 mm
11:06 PM 32.9°F0.5°C 21.7°F-5.7°C 63% 9.1 mph NW14.6 kmh NW 18.0 mph29.0 kmh 30.19 in1022.4 mb 0.00 in0.0 mm 0.00 in0.0 mm 0.01 in0.3 mm
11:11 PM 32.8°F0.4°C 22.0°F-5.6°C 64% 6.4 mph NW10.3 kmh NW 18.0 mph29.0 kmh 30.20 in1022.7 mb 0.00 in0.0 mm 0.00 in0.0 mm 0.01 in0.3 mm
11:16 PM 32.7°F0.4°C 21.9°F-5.6°C 64% 5.3 mph NW8.5 kmh NW 18.0 mph29.0 kmh 30.20 in1022.7 mb 0.00 in0.0 mm 0.00 in0.0 mm 0.01 in0.3 mm
11:20 PM 32.6°F0.3°C 21.8°F-5.7°C 64% 4.1 mph NW6.6 kmh NW 18.0 mph29.0 kmh 30.21 in1023.0 mb 0.00 in0.0 mm 0.00 in0.0 mm 0.01 in0.3 mm
11:25 PM 32.4°F0.2°C 22.0°F-5.6°C 65% 4.6 mph NW7.4 kmh NW 14.0 mph22.5 kmh 30.21 in1023.0 mb 0.00 in0.0 mm 0.00 in0.0 mm 0.01 in0.3 mm
11:30 PM 32.3°F0.2°C 21.9°F-5.6°C 65% 2.6 mph WNW4.2 kmh WNW 12.0 mph19.3 kmh 30.21 in1023.0 mb 0.00 in0.0 mm 0.00 in0.0 mm 0.01 in0.3 mm
11:35 PM 32.2°F0.1°C 21.8°F-5.7°C 65% 4.6 mph NW7.4 kmh NW 11.0 mph17.7 kmh 30.21 in1023.0 mb 0.00 in0.0 mm 0.00 in0.0 mm 0.01 in0.3 mm
11:40 PM 32.1°F0.1°C 22.1°F-5.5°C 66% 1.8 mph NW2.9 kmh NW 10.0 mph16.1 kmh 30.21 in1023.0 mb 0.00 in0.0 mm 0.00 in0.0 mm 0.01 in0.3 mm
11:45 PM 32.0°F0.0°C 22.0°F-5.6°C 66% 2.3 mph WNW3.7 kmh WNW 10.0 mph16.1 kmh 30.22 in1023.4 mb 0.00 in0.0 mm 0.00 in0.0 mm 0.01 in0.3 mm
11:50 PM 31.8°F-0.1°C 21.8°F-5.7°C 66% 2.8 mph NW4.5 kmh NW 10.0 mph16.1 kmh 30.22 in1023.4 mb 0.00 in0.0 mm 0.00 in0.0 mm 0.01 in0.3 mm
11:55 PM 31.8°F-0.1°C 21.8°F-5.7°C 66% 5.0 mph WNW8.0 kmh WNW 10.0 mph16.1 kmh 30.22 in1023.4 mb 0.00 in0.0 mm 0.00 in0.0 mm 0.01 in0.3 mm